McAdam, Canada
Current Conditions -  °F | °C
As of 6:00 AM on Sunday 26 Oct 2014 (Local Time) from CYFC Reporting Station
Overcast Overcast  
Wind Chill: 36°   Ceiling: 300
Heat Index: 41°   Visibility: 9mi
Dew Point: 41°   Wind: 7mph
Humidity: 100%   Direction: 50°NE
Pressure: 29.45"   Gusts: NA
Location:  45.6°N, 67.33°W
Report Text: CYFC 260900Z AUTO 05006KT 9SM OVC003 05/05 A2945 RMK SLP972
Loading
Personal Weather Stations






























Interactive Weather Map
Tropical Storm Tracking
New forecast layout! Learn more

10-Day Weather Forecast

Advertisements
Track Severe Weather on mobile